sensor_id;sensor_type;location;lat;lon;timestamp;pressure;altitude;pressure_sealevel;temperature;humidity
52745;BME280;38637;49.984;20.426;2023-08-31T00:01:28;98537.34;;;17.67;100.00
52745;BME280;38637;49.984;20.426;2023-08-31T00:03:54;98534.09;;;17.65;100.00
52745;BME280;38637;49.984;20.426;2023-08-31T00:06:19;98535.22;;;17.64;100.00
52745;BME280;38637;49.984;20.426;2023-08-31T00:08:47;98527.94;;;17.60;100.00
52745;BME280;38637;49.984;20.426;2023-08-31T00:11:12;98536.53;;;17.67;100.00
52745;BME280;38637;49.984;20.426;2023-08-31T00:13:37;98532.31;;;17.69;100.00
52745;BME280;38637;49.984;20.426;2023-08-31T00:16:03;98532.47;;;17.73;100.00
52745;BME280;38637;49.984;20.426;2023-08-31T00:18:30;98534.06;;;17.74;100.00
52745;BME280;38637;49.984;20.426;2023-08-31T00:20:55;98527.41;;;17.75;100.00
52745;BME280;38637;49.984;20.426;2023-08-31T00:23:20;98542.84;;;17.76;100.00
52745;BME280;38637;49.984;20.426;2023-08-31T00:25:47;98540.56;;;17.78;100.00
52745;BME280;38637;49.984;20.426;2023-08-31T00:28:19;98540.25;;;17.80;100.00
52745;BME280;38637;49.984;20.426;2023-08-31T00:30:44;98535.06;;;17.78;100.00
52745;BME280;38637;49.984;20.426;2023-08-31T00:33:11;98534.72;;;17.80;100.00
52745;BME280;38637;49.984;20.426;2023-08-31T00:35:36;98530.34;;;17.79;100.00
52745;BME280;38637;49.984;20.426;2023-08-31T00:38:02;98524.97;;;17.74;100.00
52745;BME280;38637;49.984;20.426;2023-08-31T00:40:30;98545.13;;;17.74;100.00
52745;BME280;38637;49.984;20.426;2023-08-31T00:42:56;98543.16;;;17.75;100.00
52745;BME280;38637;49.984;20.426;2023-08-31T00:45:22;98542.34;;;17.74;100.00
52745;BME280;38637;49.984;20.426;2023-08-31T00:47:48;98539.28;;;17.67;100.00
52745;BME280;38637;49.984;20.426;2023-08-31T00:50:14;98536.22;;;17.60;100.00
52745;BME280;38637;49.984;20.426;2023-08-31T00:52:41;98530.88;;;17.55;100.00
52745;BME280;38637;49.984;20.426;2023-08-31T00:55:09;98539.19;;;17.46;100.00
52745;BME280;38637;49.984;20.426;2023-08-31T00:57:35;98536.72;;;17.44;100.00
52745;BME280;38637;49.984;20.426;2023-08-31T01:00:00;98534.31;;;17.43;100.00
52745;BME280;38637;49.984;20.426;2023-08-31T01:05:08;98540.13;;;17.41;100.00
52745;BME280;38637;49.984;20.426;2023-08-31T01:10:15;98538.88;;;17.39;100.00
52745;BME280;38637;49.984;20.426;2023-08-31T01:12:56;98537.06;;;17.34;100.00
52745;BME280;38637;49.984;20.426;2023-08-31T01:15:25;98538.22;;;17.33;100.00
52745;BME280;38637;49.984;20.426;2023-08-31T01:17:52;98537.41;;;17.33;100.00
52745;BME280;38637;49.984;20.426;2023-08-31T01:20:28;98545.50;;;17.29;100.00
52745;BME280;38637;49.984;20.426;2023-08-31T01:23:04;98541.94;;;17.29;100.00
52745;BME280;38637;49.984;20.426;2023-08-31T01:25:32;98543.91;;;17.28;100.00
52745;BME280;38637;49.984;20.426;2023-08-31T01:27:58;98533.38;;;17.21;100.00
52745;BME280;38637;49.984;20.426;2023-08-31T01:30:24;98539.03;;;17.25;100.00
52745;BME280;38637;49.984;20.426;2023-08-31T01:32:49;98537.72;;;17.22;100.00
52745;BME280;38637;49.984;20.426;2023-08-31T01:35:17;98545.03;;;17.27;100.00
52745;BME280;38637;49.984;20.426;2023-08-31T01:37:58;98545.19;;;17.31;100.00
52745;BME280;38637;49.984;20.426;2023-08-31T01:40:29;98538.06;;;17.30;100.00
52745;BME280;38637;49.984;20.426;2023-08-31T01:42:58;98543.41;;;17.26;100.00
52745;BME280;38637;49.984;20.426;2023-08-31T01:45:26;98540.50;;;17.22;100.00
52745;BME280;38637;49.984;20.426;2023-08-31T01:47:52;98538.88;;;17.21;100.00
52745;BME280;38637;49.984;20.426;2023-08-31T01:50:17;98549.56;;;17.23;100.00
52745;BME280;38637;49.984;20.426;2023-08-31T01:52:43;98551.88;;;17.21;100.00
52745;BME280;38637;49.984;20.426;2023-08-31T01:55:08;98543.59;;;17.21;100.00
52745;BME280;38637;49.984;20.426;2023-08-31T01:57:34;98547.97;;;17.22;100.00
52745;BME280;38637;49.984;20.426;2023-08-31T01:59:59;98553.47;;;17.22;100.00
52745;BME280;38637;49.984;20.426;2023-08-31T02:02:25;98551.88;;;17.21;100.00
52745;BME280;38637;49.984;20.426;2023-08-31T02:04:50;98554.13;;;17.19;100.00
52745;BME280;38637;49.984;20.426;2023-08-31T02:07:16;98557.22;;;17.17;100.00
52745;BME280;38637;49.984;20.426;2023-08-31T02:09:41;98558.69;;;17.15;100.00
52745;BME280;38637;49.984;20.426;2023-08-31T02:12:07;98559.16;;;17.17;100.00
52745;BME280;38637;49.984;20.426;2023-08-31T02:14:34;98563.56;;;17.18;100.00
52745;BME280;38637;49.984;20.426;2023-08-31T02:17:00;98572.63;;;17.18;100.00
52745;BME280;38637;49.984;20.426;2023-08-31T02:19:25;98574.91;;;17.16;100.00
52745;BME280;38637;49.984;20.426;2023-08-31T02:21:50;98569.22;;;17.13;100.00
52745;BME280;38637;49.984;20.426;2023-08-31T02:24:16;98584.16;;;17.12;100.00
52745;BME280;38637;49.984;20.426;2023-08-31T02:26:41;98573.78;;;17.09;100.00
52745;BME280;38637;49.984;20.426;2023-08-31T02:29:06;98580.41;;;17.08;100.00
52745;BME280;38637;49.984;20.426;2023-08-31T02:31:32;98586.28;;;17.06;100.00
52745;BME280;38637;49.984;20.426;2023-08-31T02:33:57;98589.84;;;17.07;100.00
52745;BME280;38637;49.984;20.426;2023-08-31T02:36:23;98588.88;;;17.03;100.00
52745;BME280;38637;49.984;20.426;2023-08-31T02:38:48;98590.31;;;17.00;100.00
52745;BME280;38637;49.984;20.426;2023-08-31T02:41:15;98583.19;;;16.99;100.00
52745;BME280;38637;49.984;20.426;2023-08-31T02:43:41;98589.97;;;17.02;100.00
52745;BME280;38637;49.984;20.426;2023-08-31T02:46:06;98592.75;;;17.02;100.00
52745;BME280;38637;49.984;20.426;2023-08-31T02:48:32;98602.97;;;17.01;100.00
52745;BME280;38637;49.984;20.426;2023-08-31T02:50:58;98594.69;;;17.01;100.00
52745;BME280;38637;49.984;20.426;2023-08-31T02:53:29;98597.44;;;17.01;100.00
52745;BME280;38637;49.984;20.426;2023-08-31T02:55:55;98587.88;;;16.98;100.00
52745;BME280;38637;49.984;20.426;2023-08-31T02:58:20;98597.13;;;16.94;100.00
52745;BME280;38637;49.984;20.426;2023-08-31T03:00:46;98594.50;;;16.89;100.00
52745;BME280;38637;49.984;20.426;2023-08-31T03:03:15;98603.13;;;16.87;100.00
52745;BME280;38637;49.984;20.426;2023-08-31T03:05:40;98598.91;;;16.90;100.00
52745;BME280;38637;49.984;20.426;2023-08-31T03:08:05;98603.59;;;16.89;100.00
52745;BME280;38637;49.984;20.426;2023-08-31T03:10:31;98599.22;;;16.88;100.00
52745;BME280;38637;49.984;20.426;2023-08-31T03:12:56;98606.34;;;16.89;100.00
52745;BME280;38637;49.984;20.426;2023-08-31T03:15:21;98605.22;;;16.82;100.00
52745;BME280;38637;49.984;20.426;2023-08-31T03:17:47;98598.56;;;16.83;100.00
52745;BME280;38637;49.984;20.426;2023-08-31T03:20:12;98601.00;;;16.84;100.00
52745;BME280;38637;49.984;20.426;2023-08-31T03:22:37;98604.56;;;16.85;100.00
52745;BME280;38637;49.984;20.426;2023-08-31T03:25:03;98603.94;;;16.88;100.00
52745;BME280;38637;49.984;20.426;2023-08-31T03:27:28;98602.47;;;16.90;100.00
52745;BME280;38637;49.984;20.426;2023-08-31T03:29:53;98606.84;;;16.91;100.00
52745;BME280;38637;49.984;20.426;2023-08-31T03:32:19;98601.84;;;16.93;100.00
52745;BME280;38637;49.984;20.426;2023-08-31T03:34:44;98601.19;;;16.88;100.00
52745;BME280;38637;49.984;20.426;2023-08-31T03:37:10;98609.78;;;16.95;100.00
52745;BME280;38637;49.984;20.426;2023-08-31T03:39:35;98606.22;;;16.94;100.00
52745;BME280;38637;49.984;20.426;2023-08-31T03:42:00;98616.94;;;16.96;100.00
52745;BME280;38637;49.984;20.426;2023-08-31T03:44:25;98624.88;;;16.97;100.00
52745;BME280;38637;49.984;20.426;2023-08-31T03:46:51;98618.22;;;16.98;100.00
52745;BME280;38637;49.984;20.426;2023-08-31T03:49:16;98620.97;;;16.98;100.00
52745;BME280;38637;49.984;20.426;2023-08-31T03:51:42;98615.78;;;16.97;100.00
52745;BME280;38637;49.984;20.426;2023-08-31T03:54:08;98624.88;;;16.97;100.00
52745;BME280;38637;49.984;20.426;2023-08-31T03:56:33;98620.16;;;16.98;100.00
52745;BME280;38637;49.984;20.426;2023-08-31T03:58:59;98623.25;;;16.96;100.00
52745;BME280;38637;49.984;20.426;2023-08-31T04:01:24;98620.66;;;16.91;100.00
52745;BME280;38637;49.984;20.426;2023-08-31T04:03:49;98623.75;;;16.90;100.00
52745;BME280;38637;49.984;20.426;2023-08-31T04:06:14;98620.16;;;16.89;100.00
52745;BME280;38637;49.984;20.426;2023-08-31T04:08:40;98622.09;;;16.89;100.00
52745;BME280;38637;49.984;20.426;2023-08-31T04:11:05;98618.22;;;16.90;100.00
52745;BME280;38637;49.984;20.426;2023-08-31T04:13:30;98618.69;;;16.92;100.00
52745;BME280;38637;49.984;20.426;2023-08-31T04:15:56;98623.09;;;16.93;100.00
52745;BME280;38637;49.984;20.426;2023-08-31T04:18:21;98625.34;;;16.91;100.00
52745;BME280;38637;49.984;20.426;2023-08-31T04:20:51;98636.72;;;16.98;100.00
52745;BME280;38637;49.984;20.426;2023-08-31T04:23:17;98636.53;;;16.94;100.00
52745;BME280;38637;49.984;20.426;2023-08-31T04:25:43;98641.25;;;16.94;100.00
52745;BME280;38637;49.984;20.426;2023-08-31T04:28:08;98640.13;;;16.95;100.00
52745;BME280;38637;49.984;20.426;2023-08-31T04:30:33;98635.56;;;16.90;100.00
52745;BME280;38637;49.984;20.426;2023-08-31T04:32:58;98646.78;;;16.94;100.00
52745;BME280;38637;49.984;20.426;2023-08-31T04:35:24;98642.72;;;16.91;100.00
52745;BME280;38637;49.984;20.426;2023-08-31T04:37:49;98649.84;;;16.92;100.00
52745;BME280;38637;49.984;20.426;2023-08-31T04:40:14;98651.78;;;16.92;100.00
52745;BME280;38637;49.984;20.426;2023-08-31T04:42:40;98647.72;;;16.89;100.00
52745;BME280;38637;49.984;20.426;2023-08-31T04:45:06;98645.78;;;16.98;100.00
52745;BME280;38637;49.984;20.426;2023-08-31T04:47:31;98657.31;;;17.00;100.00
52745;BME280;38637;49.984;20.426;2023-08-31T04:49:56;98660.59;;;17.03;100.00
52745;BME280;38637;49.984;20.426;2023-08-31T04:52:24;98670.16;;;17.05;100.00
52745;BME280;38637;49.984;20.426;2023-08-31T04:54:49;98663.16;;;17.08;100.00
52745;BME280;38637;49.984;20.426;2023-08-31T04:57:14;98666.94;;;17.12;100.00
52745;BME280;38637;49.984;20.426;2023-08-31T04:59:39;98679.56;;;17.13;100.00
52745;BME280;38637;49.984;20.426;2023-08-31T05:02:05;98678.78;;;17.12;100.00
52745;BME280;38637;49.984;20.426;2023-08-31T05:04:30;98677.47;;;17.18;100.00
52745;BME280;38637;49.984;20.426;2023-08-31T05:06:55;98681.38;;;17.26;100.00
52745;BME280;38637;49.984;20.426;2023-08-31T05:09:21;98672.94;;;17.31;100.00
52745;BME280;38637;49.984;20.426;2023-08-31T05:11:46;98682.19;;;17.35;100.00
52745;BME280;38637;49.984;20.426;2023-08-31T05:14:11;98688.06;;;17.42;100.00
52745;BME280;38637;49.984;20.426;2023-08-31T05:16:37;98690.00;;;17.51;100.00
52745;BME280;38637;49.984;20.426;2023-08-31T05:19:02;98693.09;;;17.58;100.00
52745;BME280;38637;49.984;20.426;2023-08-31T05:21:28;98692.91;;;17.63;100.00
52745;BME280;38637;49.984;20.426;2023-08-31T05:23:53;98695.88;;;17.66;100.00
52745;BME280;38637;49.984;20.426;2023-08-31T05:26:18;98694.22;;;17.74;100.00
52745;BME280;38637;49.984;20.426;2023-08-31T05:28:43;98706.13;;;17.83;100.00
52745;BME280;38637;49.984;20.426;2023-08-31T05:31:09;98710.84;;;17.91;100.00
52745;BME280;38637;49.984;20.426;2023-08-31T05:33:34;98707.22;;;18.00;100.00
52745;BME280;38637;49.984;20.426;2023-08-31T05:36:02;98708.69;;;18.06;100.00
52745;BME280;38637;49.984;20.426;2023-08-31T05:38:31;98712.09;;;18.11;100.00
52745;BME280;38637;49.984;20.426;2023-08-31T05:41:09;98708.34;;;18.16;100.00
52745;BME280;38637;49.984;20.426;2023-08-31T05:43:36;98710.59;;;18.31;99.97
52745;BME280;38637;49.984;20.426;2023-08-31T05:46:05;98712.69;;;18.43;99.63
52745;BME280;38637;49.984;20.426;2023-08-31T05:48:30;98714.78;;;18.55;98.02
52745;BME280;38637;49.984;20.426;2023-08-31T05:50:56;98703.22;;;18.53;96.59
52745;BME280;38637;49.984;20.426;2023-08-31T05:53:21;98714.78;;;18.55;95.86
52745;BME280;38637;49.984;20.426;2023-08-31T05:55:47;98709.34;;;18.67;96.42
52745;BME280;38637;49.984;20.426;2023-08-31T05:58:12;98706.56;;;18.76;95.49
52745;BME280;38637;49.984;20.426;2023-08-31T06:00:37;98702.16;;;18.83;95.15
52745;BME280;38637;49.984;20.426;2023-08-31T06:03:03;98694.13;;;18.91;94.73
52745;BME280;38637;49.984;20.426;2023-08-31T06:05:30;98705.00;;;18.96;94.23
52745;BME280;38637;49.984;20.426;2023-08-31T06:07:56;98708.41;;;19.01;93.71
52745;BME280;38637;49.984;20.426;2023-08-31T06:10:22;98706.25;;;19.07;93.00
52745;BME280;38637;49.984;20.426;2023-08-31T06:12:48;98702.00;;;19.10;92.36
52745;BME280;38637;49.984;20.426;2023-08-31T06:15:14;98705.25;;;19.12;92.33
52745;BME280;38637;49.984;20.426;2023-08-31T06:17:40;98708.00;;;19.12;91.80
52745;BME280;38637;49.984;20.426;2023-08-31T06:20:07;98714.00;;;19.22;91.65
52745;BME280;38637;49.984;20.426;2023-08-31T06:22:33;98719.44;;;19.31;91.09
52745;BME280;38637;49.984;20.426;2023-08-31T06:24:59;98712.72;;;19.41;90.27
52745;BME280;38637;49.984;20.426;2023-08-31T06:27:25;98710.91;;;19.45;90.42
52745;BME280;38637;49.984;20.426;2023-08-31T06:29:50;98711.50;;;19.50;89.91
52745;BME280;38637;49.984;20.426;2023-08-31T06:32:16;98722.84;;;19.58;88.88
52745;BME280;38637;49.984;20.426;2023-08-31T06:34:42;98728.22;;;19.63;89.40
52745;BME280;38637;49.984;20.426;2023-08-31T06:37:08;98724.16;;;19.60;88.96
52745;BME280;38637;49.984;20.426;2023-08-31T06:39:33;98723.53;;;19.55;88.02
52745;BME280;38637;49.984;20.426;2023-08-31T06:41:59;98722.06;;;19.57;88.07
52745;BME280;38637;49.984;20.426;2023-08-31T06:44:24;98728.00;;;19.68;87.80
52745;BME280;38637;49.984;20.426;2023-08-31T06:46:49;98730.47;;;19.69;87.97
52745;BME280;38637;49.984;20.426;2023-08-31T06:49:14;98732.09;;;19.62;86.24
52745;BME280;38637;49.984;20.426;2023-08-31T06:51:40;98733.31;;;19.52;87.89
52745;BME280;38637;49.984;20.426;2023-08-31T06:54:05;98735.88;;;19.66;88.96
52745;BME280;38637;49.984;20.426;2023-08-31T06:56:35;98737.56;;;19.79;87.80
52745;BME280;38637;49.984;20.426;2023-08-31T06:59:01;98741.00;;;19.76;86.87
52745;BME280;38637;49.984;20.426;2023-08-31T07:01:27;98737.75;;;19.74;87.10
52745;BME280;38637;49.984;20.426;2023-08-31T07:03:53;98736.69;;;19.87;87.69
52745;BME280;38637;49.984;20.426;2023-08-31T07:06:19;98736.94;;;19.94;86.73
52745;BME280;38637;49.984;20.426;2023-08-31T07:08:44;98754.44;;;20.07;86.97
52745;BME280;38637;49.984;20.426;2023-08-31T07:11:11;98750.56;;;20.20;86.16
52745;BME280;38637;49.984;20.426;2023-08-31T07:13:36;98762.59;;;20.25;83.72
52745;BME280;38637;49.984;20.426;2023-08-31T07:16:02;98763.59;;;20.20;83.31
52745;BME280;38637;49.984;20.426;2023-08-31T07:18:27;98768.81;;;20.22;82.82
52745;BME280;38637;49.984;20.426;2023-08-31T07:20:53;98768.81;;;20.22;82.79
52745;BME280;38637;49.984;20.426;2023-08-31T07:23:18;98769.41;;;20.27;82.00
52745;BME280;38637;49.984;20.426;2023-08-31T07:25:43;98774.84;;;20.24;81.73
52745;BME280;38637;49.984;20.426;2023-08-31T07:28:09;98772.59;;;20.17;83.04
52745;BME280;38637;49.984;20.426;2023-08-31T07:30:35;98769.50;;;20.18;83.49
52745;BME280;38637;49.984;20.426;2023-08-31T07:33:00;98776.94;;;20.27;83.32
52745;BME280;38637;49.984;20.426;2023-08-31T07:35:29;98777.88;;;20.31;81.65
52745;BME280;38637;49.984;20.426;2023-08-31T07:37:55;98769.97;;;20.54;81.99
52745;BME280;38637;49.984;20.426;2023-08-31T07:40:21;98772.56;;;20.71;80.78
52745;BME280;38637;49.984;20.426;2023-08-31T07:42:46;98775.50;;;20.99;79.43
52745;BME280;38637;49.984;20.426;2023-08-31T07:45:11;98777.38;;;21.20;78.26
52745;BME280;38637;49.984;20.426;2023-08-31T07:47:37;98778.53;;;21.31;76.71
52745;BME280;38637;49.984;20.426;2023-08-31T07:50:02;98779.84;;;21.46;76.73
52745;BME280;38637;49.984;20.426;2023-08-31T07:52:28;98780.97;;;21.45;76.93
52745;BME280;38637;49.984;20.426;2023-08-31T07:54:53;98779.94;;;21.25;76.55
52745;BME280;38637;49.984;20.426;2023-08-31T07:57:19;98784.22;;;21.22;76.51
52745;BME280;38637;49.984;20.426;2023-08-31T07:59:44;98784.00;;;21.40;76.94
52745;BME280;38637;49.984;20.426;2023-08-31T08:02:09;98778.31;;;21.61;75.44
52745;BME280;38637;49.984;20.426;2023-08-31T08:04:35;98775.63;;;21.76;74.79
52745;BME280;38637;49.984;20.426;2023-08-31T08:07:00;98784.41;;;21.78;73.94
52745;BME280;38637;49.984;20.426;2023-08-31T08:09:25;98779.66;;;21.79;73.30
52745;BME280;38637;49.984;20.426;2023-08-31T08:11:51;98783.81;;;21.85;73.95
52745;BME280;38637;49.984;20.426;2023-08-31T08:14:16;98790.31;;;21.89;73.15
52745;BME280;38637;49.984;20.426;2023-08-31T08:16:42;98784.66;;;21.73;72.63
52745;BME280;38637;49.984;20.426;2023-08-31T08:19:07;98789.06;;;21.74;73.01
52745;BME280;38637;49.984;20.426;2023-08-31T08:21:33;98784.50;;;21.82;72.65
52745;BME280;38637;49.984;20.426;2023-08-31T08:23:59;98791.81;;;21.87;71.49
52745;BME280;38637;49.984;20.426;2023-08-31T08:26:24;98781.88;;;21.73;72.31
52745;BME280;38637;49.984;20.426;2023-08-31T08:28:49;98791.91;;;21.90;72.95
52745;BME280;38637;49.984;20.426;2023-08-31T08:31:15;98798.03;;;21.96;71.52
52745;BME280;38637;49.984;20.426;2023-08-31T08:33:40;98795.25;;;21.96;71.98
52745;BME280;38637;49.984;20.426;2023-08-31T08:36:05;98802.34;;;21.93;71.12
52745;BME280;38637;49.984;20.426;2023-08-31T08:38:31;98804.50;;;22.00;71.19
52745;BME280;38637;49.984;20.426;2023-08-31T08:40:56;98801.50;;;22.05;70.74
52745;BME280;38637;49.984;20.426;2023-08-31T08:43:24;98798.72;;;22.05;70.78
52745;BME280;38637;49.984;20.426;2023-08-31T08:45:50;98796.28;;;22.03;70.56
52745;BME280;38637;49.984;20.426;2023-08-31T08:48:17;98806.50;;;21.99;69.80
52745;BME280;38637;49.984;20.426;2023-08-31T08:50:43;98800.03;;;21.95;70.97
52745;BME280;38637;49.984;20.426;2023-08-31T08:53:09;98797.91;;;22.05;71.14
52745;BME280;38637;49.984;20.426;2023-08-31T08:55:34;98806.50;;;21.99;70.60
52745;BME280;38637;49.984;20.426;2023-08-31T08:57:59;98808.38;;;21.95;70.77
52745;BME280;38637;49.984;20.426;2023-08-31T09:00:26;98812.41;;;21.98;70.86
52745;BME280;38637;49.984;20.426;2023-08-31T09:02:52;98804.19;;;22.01;70.70
52745;BME280;38637;49.984;20.426;2023-08-31T09:05:18;98807.50;;;22.19;70.54
52745;BME280;38637;49.984;20.426;2023-08-31T09:08:05;98811.06;;;22.32;69.08
52745;BME280;38637;49.984;20.426;2023-08-31T09:10:35;98809.19;;;22.36;68.67
52745;BME280;38637;49.984;20.426;2023-08-31T09:13:01;98821.00;;;22.33;68.74
52745;BME280;38637;49.984;20.426;2023-08-31T09:18:03;98828.03;;;22.02;69.90
52745;BME280;38637;49.984;20.426;2023-08-31T09:20:29;98829.81;;;21.95;69.85
52745;BME280;38637;49.984;20.426;2023-08-31T09:22:55;98831.88;;;21.98;69.92
52745;BME280;38637;49.984;20.426;2023-08-31T09:25:21;98832.88;;;22.06;68.99
52745;BME280;38637;49.984;20.426;2023-08-31T09:27:46;98833.00;;;21.97;68.72
52745;BME280;38637;49.984;20.426;2023-08-31T09:30:12;98834.88;;;22.05;69.25
52745;BME280;38637;49.984;20.426;2023-08-31T09:32:38;98829.19;;;22.01;68.38
52745;BME280;38637;49.984;20.426;2023-08-31T09:35:08;98842.59;;;22.12;69.37
52745;BME280;38637;49.984;20.426;2023-08-31T09:37:33;98841.31;;;22.21;70.00
52745;BME280;38637;49.984;20.426;2023-08-31T09:40:02;98834.72;;;22.26;69.31
52745;BME280;38637;49.984;20.426;2023-08-31T09:42:37;98836.13;;;22.20;69.11
52745;BME280;38637;49.984;20.426;2023-08-31T09:45:06;98832.09;;;22.05;68.23
52745;BME280;38637;49.984;20.426;2023-08-31T09:47:31;98840.91;;;22.07;68.18
52745;BME280;38637;49.984;20.426;2023-08-31T09:49:58;98837.75;;;22.09;69.71
52745;BME280;38637;49.984;20.426;2023-08-31T09:52:24;98839.81;;;22.24;69.76
52745;BME280;38637;49.984;20.426;2023-08-31T09:54:50;98841.75;;;22.36;67.33
52745;BME280;38637;49.984;20.426;2023-08-31T09:57:16;98846.56;;;22.51;68.14
52745;BME280;38637;49.984;20.426;2023-08-31T09:59:43;98856.94;;;22.66;67.25
52745;BME280;38637;49.984;20.426;2023-08-31T10:02:11;98853.94;;;22.87;66.17
52745;BME280;38637;49.984;20.426;2023-08-31T10:04:38;98852.75;;;22.88;64.66
52745;BME280;38637;49.984;20.426;2023-08-31T10:07:04;98852.25;;;22.99;66.04
52745;BME280;38637;49.984;20.426;2023-08-31T10:09:31;98852.50;;;22.93;63.56
52745;BME280;38637;49.984;20.426;2023-08-31T10:11:57;98860.88;;;22.93;65.07
52745;BME280;38637;49.984;20.426;2023-08-31T10:14:22;98860.66;;;23.14;64.57
52745;BME280;38637;49.984;20.426;2023-08-31T10:16:48;98859.56;;;23.35;65.07
52745;BME280;38637;49.984;20.426;2023-08-31T10:19:14;98853.56;;;23.49;65.52
52745;BME280;38637;49.984;20.426;2023-08-31T10:21:40;98856.78;;;23.35;62.77
52745;BME280;38637;49.984;20.426;2023-08-31T10:24:06;98861.00;;;23.13;63.55
52745;BME280;38637;49.984;20.426;2023-08-31T10:26:32;98860.53;;;23.11;63.93
52745;BME280;38637;49.984;20.426;2023-08-31T10:28:58;98864.97;;;23.12;62.24
52745;BME280;38637;49.984;20.426;2023-08-31T10:31:27;98866.50;;;23.09;63.03
52745;BME280;38637;49.984;20.426;2023-08-31T10:34:01;98869.81;;;22.99;63.75
52745;BME280;38637;49.984;20.426;2023-08-31T10:36:45;98856.94;;;22.94;61.81
52745;BME280;38637;49.984;20.426;2023-08-31T10:39:16;98861.16;;;23.04;60.31
52745;BME280;38637;49.984;20.426;2023-08-31T10:41:42;98876.66;;;23.17;59.26
52745;BME280;38637;49.984;20.426;2023-08-31T10:44:30;98870.00;;;23.06;57.16
52745;BME280;38637;49.984;20.426;2023-08-31T10:46:59;98873.34;;;23.28;57.47
52745;BME280;38637;49.984;20.426;2023-08-31T10:49:25;98875.84;;;23.49;57.79
52745;BME280;38637;49.984;20.426;2023-08-31T10:51:56;98884.84;;;23.58;55.20
52745;BME280;38637;49.984;20.426;2023-08-31T10:54:32;98866.59;;;23.60;55.59
52745;BME280;38637;49.984;20.426;2023-08-31T10:57:03;98879.00;;;23.63;55.47
52745;BME280;38637;49.984;20.426;2023-08-31T10:59:49;98877.28;;;23.58;55.44
52745;BME280;38637;49.984;20.426;2023-08-31T11:02:46;98875.38;;;23.62;56.87
52745;BME280;38637;49.984;20.426;2023-08-31T11:07:43;98875.38;;;23.62;56.32
52745;BME280;38637;49.984;20.426;2023-08-31T11:10:16;98887.91;;;23.53;55.28
52745;BME280;38637;49.984;20.426;2023-08-31T11:12:48;98884.13;;;23.45;57.12
52745;BME280;38637;49.984;20.426;2023-08-31T11:15:19;98878.28;;;23.34;56.59
52745;BME280;38637;49.984;20.426;2023-08-31T11:17:46;98874.06;;;23.40;57.74
52745;BME280;38637;49.984;20.426;2023-08-31T11:20:14;98875.66;;;23.42;57.44
52745;BME280;38637;49.984;20.426;2023-08-31T11:22:41;98874.06;;;23.40;58.13
52745;BME280;38637;49.984;20.426;2023-08-31T11:25:08;98885.66;;;23.43;58.80
52745;BME280;38637;49.984;20.426;2023-08-31T11:27:33;98875.31;;;23.43;58.55
52745;BME280;38637;49.984;20.426;2023-08-31T11:29:59;98884.31;;;23.52;58.36
52745;BME280;38637;49.984;20.426;2023-08-31T11:32:25;98881.88;;;23.67;57.59
52745;BME280;38637;49.984;20.426;2023-08-31T11:34:51;98874.25;;;23.79;57.90
52745;BME280;38637;49.984;20.426;2023-08-31T11:37:16;98880.44;;;23.89;58.14
52745;BME280;38637;49.984;20.426;2023-08-31T11:39:53;98870.53;;;23.91;56.27
52745;BME280;38637;49.984;20.426;2023-08-31T11:42:20;98876.22;;;24.14;57.32
52745;BME280;38637;49.984;20.426;2023-08-31T11:44:48;98872.38;;;24.38;57.23
52745;BME280;38637;49.984;20.426;2023-08-31T11:47:14;98874.59;;;24.48;56.02
52745;BME280;38637;49.984;20.426;2023-08-31T11:49:40;98875.25;;;24.42;55.61
52745;BME280;38637;49.984;20.426;2023-08-31T11:52:06;98870.66;;;24.49;56.07
52745;BME280;38637;49.984;20.426;2023-08-31T11:54:31;98866.81;;;24.58;54.48
52745;BME280;38637;49.984;20.426;2023-08-31T11:56:56;98875.13;;;24.73;54.99
52745;BME280;38637;49.984;20.426;2023-08-31T11:59:21;98867.16;;;24.95;55.21
52745;BME280;38637;49.984;20.426;2023-08-31T12:01:49;98875.88;;;25.13;54.27
52745;BME280;38637;49.984;20.426;2023-08-31T12:04:24;98874.03;;;25.20;53.23
52745;BME280;38637;49.984;20.426;2023-08-31T12:06:51;98873.53;;;25.15;53.91
52745;BME280;38637;49.984;20.426;2023-08-31T12:09:20;98874.66;;;24.91;52.97
52745;BME280;38637;49.984;20.426;2023-08-31T12:11:51;98884.31;;;24.74;53.49
52745;BME280;38637;49.984;20.426;2023-08-31T12:14:22;98867.41;;;24.47;54.05
52745;BME280;38637;49.984;20.426;2023-08-31T12:17:05;98874.94;;;24.27;53.81
52745;BME280;38637;49.984;20.426;2023-08-31T12:19:31;98860.91;;;23.89;54.89
52745;BME280;38637;49.984;20.426;2023-08-31T12:21:57;98861.03;;;23.76;55.09
52745;BME280;38637;49.984;20.426;2023-08-31T12:24:23;98863.28;;;23.55;55.31
52745;BME280;38637;49.984;20.426;2023-08-31T12:26:49;98865.25;;;23.54;57.27
52745;BME280;38637;49.984;20.426;2023-08-31T12:29:15;98876.56;;;23.46;56.32
52745;BME280;38637;49.984;20.426;2023-08-31T12:31:41;98868.56;;;23.44;57.53
52745;BME280;38637;49.984;20.426;2023-08-31T12:34:06;98870.53;;;23.44;54.78
52745;BME280;38637;49.984;20.426;2023-08-31T12:36:35;98870.91;;;23.58;56.11
52745;BME280;38637;49.984;20.426;2023-08-31T12:39:02;98863.00;;;23.76;56.87
52745;BME280;38637;49.984;20.426;2023-08-31T12:41:31;98868.94;;;23.74;57.12
52745;BME280;38637;49.984;20.426;2023-08-31T12:43:56;98863.16;;;23.67;57.60
52745;BME280;38637;49.984;20.426;2023-08-31T12:46:23;98867.41;;;23.61;58.08
52745;BME280;38637;49.984;20.426;2023-08-31T12:48:48;98875.13;;;23.52;56.71
52745;BME280;38637;49.984;20.426;2023-08-31T12:51:15;98869.91;;;23.50;57.67
52745;BME280;38637;49.984;20.426;2023-08-31T12:53:40;98866.31;;;23.50;58.48